sensor_id;sensor_type;location;lat;lon;timestamp;P1;durP1;ratioP1;P2;durP2;ratioP2
49514;SDS011;35415;47.870;16.058;2022-09-27T00:00:03;2.50;;;2.00;;
49514;SDS011;35415;47.870;16.058;2022-09-27T00:02:30;4.60;;;2.38;;
49514;SDS011;35415;47.870;16.058;2022-09-27T00:04:59;2.60;;;2.35;;
49514;SDS011;35415;47.870;16.058;2022-09-27T00:07:26;3.50;;;2.40;;
49514;SDS011;35415;47.870;16.058;2022-09-27T00:09:53;4.00;;;1.80;;
49514;SDS011;35415;47.870;16.058;2022-09-27T00:12:20;2.78;;;2.20;;
49514;SDS011;35415;47.870;16.058;2022-09-27T00:14:49;3.58;;;2.10;;
49514;SDS011;35415;47.870;16.058;2022-09-27T00:17:17;2.25;;;1.98;;
49514;SDS011;35415;47.870;16.058;2022-09-27T00:19:44;3.42;;;2.47;;
49514;SDS011;35415;47.870;16.058;2022-09-27T00:22:12;3.33;;;2.35;;
49514;SDS011;35415;47.870;16.058;2022-09-27T00:24:39;3.35;;;2.50;;
49514;SDS011;35415;47.870;16.058;2022-09-27T00:27:07;5.57;;;2.72;;
49514;SDS011;35415;47.870;16.058;2022-09-27T00:29:34;3.40;;;2.65;;
49514;SDS011;35415;47.870;16.058;2022-09-27T00:32:02;3.22;;;2.55;;
49514;SDS011;35415;47.870;16.058;2022-09-27T00:34:29;3.10;;;2.25;;
49514;SDS011;35415;47.870;16.058;2022-09-27T00:36:56;4.30;;;2.65;;
49514;SDS011;35415;47.870;16.058;2022-09-27T00:39:25;3.13;;;2.40;;
49514;SDS011;35415;47.870;16.058;2022-09-27T00:41:52;3.40;;;2.58;;
49514;SDS011;35415;47.870;16.058;2022-09-27T00:47:31;4.53;;;2.08;;
49514;SDS011;35415;47.870;16.058;2022-09-27T00:50:05;3.25;;;2.30;;
49514;SDS011;35415;47.870;16.058;2022-09-27T00:52:39;4.05;;;2.45;;
49514;SDS011;35415;47.870;16.058;2022-09-27T00:55:14;3.58;;;2.47;;
49514;SDS011;35415;47.870;16.058;2022-09-27T00:57:46;7.28;;;2.55;;
49514;SDS011;35415;47.870;16.058;2022-09-27T01:00:14;7.70;;;3.20;;
49514;SDS011;35415;47.870;16.058;2022-09-27T01:02:43;3.50;;;2.40;;
49514;SDS011;35415;47.870;16.058;2022-09-27T01:05:14;3.90;;;2.40;;
49514;SDS011;35415;47.870;16.058;2022-09-27T01:07:44;3.55;;;2.75;;
49514;SDS011;35415;47.870;16.058;2022-09-27T01:10:13;3.05;;;2.00;;
49514;SDS011;35415;47.870;16.058;2022-09-27T01:12:44;2.60;;;2.03;;
49514;SDS011;35415;47.870;16.058;2022-09-27T01:15:27;4.40;;;1.70;;
49514;SDS011;35415;47.870;16.058;2022-09-27T01:18:04;2.35;;;2.03;;
49514;SDS011;35415;47.870;16.058;2022-09-27T01:30:31;2.40;;;2.00;;
49514;SDS011;35415;47.870;16.058;2022-09-27T01:33:09;2.20;;;2.00;;
49514;SDS011;35415;47.870;16.058;2022-09-27T01:35:51;2.33;;;2.05;;
49514;SDS011;35415;47.870;16.058;2022-09-27T01:38:33;2.05;;;1.75;;
49514;SDS011;35415;47.870;16.058;2022-09-27T01:41:11;2.50;;;1.88;;
49514;SDS011;35415;47.870;16.058;2022-09-27T01:43:48;2.50;;;1.98;;
49514;SDS011;35415;47.870;16.058;2022-09-27T01:46:26;2.53;;;2.00;;
49514;SDS011;35415;47.870;16.058;2022-09-27T01:48:59;2.05;;;1.73;;
49514;SDS011;35415;47.870;16.058;2022-09-27T01:51:32;3.95;;;2.15;;
49514;SDS011;35415;47.870;16.058;2022-09-27T01:56:33;1.98;;;1.80;;
49514;SDS011;35415;47.870;16.058;2022-09-27T02:01:37;1.85;;;1.63;;
49514;SDS011;35415;47.870;16.058;2022-09-27T02:04:09;2.53;;;1.90;;
49514;SDS011;35415;47.870;16.058;2022-09-27T02:06:40;2.08;;;1.77;;
49514;SDS011;35415;47.870;16.058;2022-09-27T02:09:12;2.33;;;1.90;;
49514;SDS011;35415;47.870;16.058;2022-09-27T02:11:44;2.33;;;1.88;;
49514;SDS011;35415;47.870;16.058;2022-09-27T02:16:49;2.35;;;1.88;;
49514;SDS011;35415;47.870;16.058;2022-09-27T02:19:20;2.00;;;1.80;;
49514;SDS011;35415;47.870;16.058;2022-09-27T02:21:59;2.80;;;1.80;;
49514;SDS011;35415;47.870;16.058;2022-09-27T02:24:40;1.63;;;1.52;;
49514;SDS011;35415;47.870;16.058;2022-09-27T02:27:14;2.45;;;2.08;;
49514;SDS011;35415;47.870;16.058;2022-09-27T02:29:48;2.08;;;1.67;;
49514;SDS011;35415;47.870;16.058;2022-09-27T02:32:19;1.83;;;1.52;;
49514;SDS011;35415;47.870;16.058;2022-09-27T02:34:46;3.90;;;1.60;;
49514;SDS011;35415;47.870;16.058;2022-09-27T02:37:16;2.38;;;1.40;;
49514;SDS011;35415;47.870;16.058;2022-09-27T02:39:43;2.15;;;1.95;;
49514;SDS011;35415;47.870;16.058;2022-09-27T02:42:11;2.83;;;1.75;;
49514;SDS011;35415;47.870;16.058;2022-09-27T02:44:38;2.42;;;1.90;;
49514;SDS011;35415;47.870;16.058;2022-09-27T02:50:14;2.50;;;1.90;;
49514;SDS011;35415;47.870;16.058;2022-09-27T02:52:57;1.55;;;1.45;;
49514;SDS011;35415;47.870;16.058;2022-09-27T02:55:36;2.08;;;1.80;;
49514;SDS011;35415;47.870;16.058;2022-09-27T02:58:11;1.70;;;1.50;;
49514;SDS011;35415;47.870;16.058;2022-09-27T03:00:46;1.85;;;1.60;;
49514;SDS011;35415;47.870;16.058;2022-09-27T03:03:22;3.50;;;1.70;;
49514;SDS011;35415;47.870;16.058;2022-09-27T03:05:57;2.25;;;1.60;;
49514;SDS011;35415;47.870;16.058;2022-09-27T03:08:29;1.98;;;1.73;;
49514;SDS011;35415;47.870;16.058;2022-09-27T03:10:56;3.05;;;1.73;;
49514;SDS011;35415;47.870;16.058;2022-09-27T03:13:26;4.40;;;1.98;;
49514;SDS011;35415;47.870;16.058;2022-09-27T03:15:53;2.75;;;1.83;;
49514;SDS011;35415;47.870;16.058;2022-09-27T03:18:22;1.83;;;1.40;;
49514;SDS011;35415;47.870;16.058;2022-09-27T03:20:51;1.95;;;1.38;;
49514;SDS011;35415;47.870;16.058;2022-09-27T03:23:19;4.32;;;1.65;;
49514;SDS011;35415;47.870;16.058;2022-09-27T03:25:46;2.78;;;1.30;;
49514;SDS011;35415;47.870;16.058;2022-09-27T03:28:13;3.60;;;1.67;;
49514;SDS011;35415;47.870;16.058;2022-09-27T03:30:41;1.52;;;1.40;;
49514;SDS011;35415;47.870;16.058;2022-09-27T03:33:10;1.70;;;1.30;;
49514;SDS011;35415;47.870;16.058;2022-09-27T03:35:39;2.22;;;1.52;;
49514;SDS011;35415;47.870;16.058;2022-09-27T03:38:07;2.90;;;2.35;;
49514;SDS011;35415;47.870;16.058;2022-09-27T03:40:35;1.60;;;1.50;;
49514;SDS011;35415;47.870;16.058;2022-09-27T03:43:02;3.70;;;1.63;;
49514;SDS011;35415;47.870;16.058;2022-09-27T03:45:30;2.45;;;1.50;;
49514;SDS011;35415;47.870;16.058;2022-09-27T03:47:57;1.65;;;1.50;;
49514;SDS011;35415;47.870;16.058;2022-09-27T03:50:25;1.90;;;1.70;;
49514;SDS011;35415;47.870;16.058;2022-09-27T03:52:53;1.50;;;1.40;;
49514;SDS011;35415;47.870;16.058;2022-09-27T03:55:21;1.63;;;1.52;;
49514;SDS011;35415;47.870;16.058;2022-09-27T03:57:48;2.17;;;1.70;;
49514;SDS011;35415;47.870;16.058;2022-09-27T04:00:16;2.22;;;2.00;;
49514;SDS011;35415;47.870;16.058;2022-09-27T04:02:43;2.17;;;1.88;;
49514;SDS011;35415;47.870;16.058;2022-09-27T04:05:10;1.90;;;1.50;;
49514;SDS011;35415;47.870;16.058;2022-09-27T04:07:37;1.83;;;1.70;;
49514;SDS011;35415;47.870;16.058;2022-09-27T04:10:06;3.03;;;2.60;;
49514;SDS011;35415;47.870;16.058;2022-09-27T04:12:34;3.25;;;2.05;;
49514;SDS011;35415;47.870;16.058;2022-09-27T04:15:01;3.28;;;1.77;;
49514;SDS011;35415;47.870;16.058;2022-09-27T04:17:30;3.90;;;2.17;;
49514;SDS011;35415;47.870;16.058;2022-09-27T04:19:57;2.08;;;1.80;;
49514;SDS011;35415;47.870;16.058;2022-09-27T04:22:27;2.08;;;1.75;;
49514;SDS011;35415;47.870;16.058;2022-09-27T04:24:54;1.98;;;1.60;;
49514;SDS011;35415;47.870;16.058;2022-09-27T04:27:23;1.65;;;1.55;;
49514;SDS011;35415;47.870;16.058;2022-09-27T04:29:50;1.50;;;1.40;;
49514;SDS011;35415;47.870;16.058;2022-09-27T04:32:17;2.15;;;1.55;;
49514;SDS011;35415;47.870;16.058;2022-09-27T04:34:44;2.58;;;1.77;;
49514;SDS011;35415;47.870;16.058;2022-09-27T04:37:38;2.90;;;2.30;;
49514;SDS011;35415;47.870;16.058;2022-09-27T04:40:06;3.38;;;2.03;;
49514;SDS011;35415;47.870;16.058;2022-09-27T04:42:35;2.70;;;2.05;;
49514;SDS011;35415;47.870;16.058;2022-09-27T04:45:02;3.65;;;3.10;;
49514;SDS011;35415;47.870;16.058;2022-09-27T04:47:29;2.40;;;1.98;;
49514;SDS011;35415;47.870;16.058;2022-09-27T04:49:58;2.97;;;1.85;;
49514;SDS011;35415;47.870;16.058;2022-09-27T04:52:25;2.55;;;2.10;;
49514;SDS011;35415;47.870;16.058;2022-09-27T04:54:52;3.70;;;1.88;;
49514;SDS011;35415;47.870;16.058;2022-09-27T04:57:19;1.88;;;1.67;;
49514;SDS011;35415;47.870;16.058;2022-09-27T04:59:48;4.40;;;2.33;;
49514;SDS011;35415;47.870;16.058;2022-09-27T05:02:15;20.35;;;3.58;;
49514;SDS011;35415;47.870;16.058;2022-09-27T05:04:43;3.67;;;2.63;;
49514;SDS011;35415;47.870;16.058;2022-09-27T05:07:10;3.05;;;1.88;;
49514;SDS011;35415;47.870;16.058;2022-09-27T05:09:38;2.65;;;1.52;;
49514;SDS011;35415;47.870;16.058;2022-09-27T05:12:05;6.70;;;2.38;;
49514;SDS011;35415;47.870;16.058;2022-09-27T05:14:33;6.35;;;2.33;;
49514;SDS011;35415;47.870;16.058;2022-09-27T05:17:01;3.90;;;2.38;;
49514;SDS011;35415;47.870;16.058;2022-09-27T05:19:28;3.28;;;2.03;;
49514;SDS011;35415;47.870;16.058;2022-09-27T05:21:57;4.28;;;2.70;;
49514;SDS011;35415;47.870;16.058;2022-09-27T05:24:24;4.60;;;2.30;;
49514;SDS011;35415;47.870;16.058;2022-09-27T05:26:53;12.27;;;5.78;;
49514;SDS011;35415;47.870;16.058;2022-09-27T05:29:20;3.30;;;2.38;;
49514;SDS011;35415;47.870;16.058;2022-09-27T05:31:47;3.33;;;2.40;;
49514;SDS011;35415;47.870;16.058;2022-09-27T05:34:16;6.63;;;4.85;;
49514;SDS011;35415;47.870;16.058;2022-09-27T05:36:45;3.78;;;2.92;;
49514;SDS011;35415;47.870;16.058;2022-09-27T05:39:13;4.55;;;3.10;;
49514;SDS011;35415;47.870;16.058;2022-09-27T05:41:41;6.95;;;3.58;;
49514;SDS011;35415;47.870;16.058;2022-09-27T05:44:08;2.83;;;2.47;;
49514;SDS011;35415;47.870;16.058;2022-09-27T05:46:37;3.58;;;2.30;;
49514;SDS011;35415;47.870;16.058;2022-09-27T05:49:05;7.78;;;5.88;;
49514;SDS011;35415;47.870;16.058;2022-09-27T05:51:33;6.03;;;3.83;;
49514;SDS011;35415;47.870;16.058;2022-09-27T05:54:00;6.65;;;4.45;;
49514;SDS011;35415;47.870;16.058;2022-09-27T05:56:28;4.10;;;2.55;;
49514;SDS011;35415;47.870;16.058;2022-09-27T05:58:55;2.45;;;2.10;;
49514;SDS011;35415;47.870;16.058;2022-09-27T06:01:23;2.50;;;1.83;;
49514;SDS011;35415;47.870;16.058;2022-09-27T06:03:51;3.55;;;2.40;;
49514;SDS011;35415;47.870;16.058;2022-09-27T06:06:19;1.77;;;1.67;;
49514;SDS011;35415;47.870;16.058;2022-09-27T06:08:48;2.03;;;1.80;;
49514;SDS011;35415;47.870;16.058;2022-09-27T06:11:15;2.08;;;1.80;;
49514;SDS011;35415;47.870;16.058;2022-09-27T06:13:42;1.70;;;1.60;;
49514;SDS011;35415;47.870;16.058;2022-09-27T06:16:12;6.00;;;1.98;;
49514;SDS011;35415;47.870;16.058;2022-09-27T06:18:39;2.22;;;1.65;;
49514;SDS011;35415;47.870;16.058;2022-09-27T06:21:08;2.17;;;1.60;;
49514;SDS011;35415;47.870;16.058;2022-09-27T06:23:35;3.83;;;2.10;;
49514;SDS011;35415;47.870;16.058;2022-09-27T06:26:05;2.00;;;1.70;;
49514;SDS011;35415;47.870;16.058;2022-09-27T06:28:35;2.75;;;1.70;;
49514;SDS011;35415;47.870;16.058;2022-09-27T06:31:03;3.20;;;1.92;;
49514;SDS011;35415;47.870;16.058;2022-09-27T06:33:32;2.08;;;1.50;;
49514;SDS011;35415;47.870;16.058;2022-09-27T06:36:00;2.22;;;1.60;;
49514;SDS011;35415;47.870;16.058;2022-09-27T06:38:28;1.88;;;1.52;;
49514;SDS011;35415;47.870;16.058;2022-09-27T06:40:59;2.67;;;1.92;;
49514;SDS011;35415;47.870;16.058;2022-09-27T06:43:29;2.22;;;1.80;;
49514;SDS011;35415;47.870;16.058;2022-09-27T06:45:58;2.25;;;1.63;;
49514;SDS011;35415;47.870;16.058;2022-09-27T06:48:28;5.22;;;1.92;;
49514;SDS011;35415;47.870;16.058;2022-09-27T06:50:56;2.30;;;1.80;;
49514;SDS011;35415;47.870;16.058;2022-09-27T06:53:23;4.78;;;2.10;;
49514;SDS011;35415;47.870;16.058;2022-09-27T06:55:56;2.50;;;1.52;;
49514;SDS011;35415;47.870;16.058;2022-09-27T06:58:29;1.75;;;1.40;;
49514;SDS011;35415;47.870;16.058;2022-09-27T07:01:13;2.20;;;1.65;;
49514;SDS011;35415;47.870;16.058;2022-09-27T07:03:48;5.47;;;1.88;;
49514;SDS011;35415;47.870;16.058;2022-09-27T07:06:16;7.00;;;2.00;;
49514;SDS011;35415;47.870;16.058;2022-09-27T07:08:48;2.65;;;1.77;;
49514;SDS011;35415;47.870;16.058;2022-09-27T07:11:17;2.85;;;1.95;;
49514;SDS011;35415;47.870;16.058;2022-09-27T07:13:46;2.92;;;2.63;;
49514;SDS011;35415;47.870;16.058;2022-09-27T07:16:15;1.90;;;1.63;;
49514;SDS011;35415;47.870;16.058;2022-09-27T07:18:43;2.65;;;1.77;;
49514;SDS011;35415;47.870;16.058;2022-09-27T07:21:10;3.83;;;1.90;;
49514;SDS011;35415;47.870;16.058;2022-09-27T07:23:40;2.35;;;1.88;;
49514;SDS011;35415;47.870;16.058;2022-09-27T07:26:08;2.40;;;1.80;;
49514;SDS011;35415;47.870;16.058;2022-09-27T07:28:35;1.98;;;1.50;;
49514;SDS011;35415;47.870;16.058;2022-09-27T07:31:07;3.33;;;2.33;;
49514;SDS011;35415;47.870;16.058;2022-09-27T07:33:35;1.70;;;1.60;;
49514;SDS011;35415;47.870;16.058;2022-09-27T07:36:05;5.72;;;2.00;;
49514;SDS011;35415;47.870;16.058;2022-09-27T07:38:33;9.73;;;1.92;;
49514;SDS011;35415;47.870;16.058;2022-09-27T07:41:04;2.40;;;1.80;;
49514;SDS011;35415;47.870;16.058;2022-09-27T07:43:32;1.80;;;1.50;;
49514;SDS011;35415;47.870;16.058;2022-09-27T07:45:59;1.48;;;1.13;;
49514;SDS011;35415;47.870;16.058;2022-09-27T07:48:28;2.05;;;1.60;;
49514;SDS011;35415;47.870;16.058;2022-09-27T07:50:55;2.90;;;2.00;;
49514;SDS011;35415;47.870;16.058;2022-09-27T07:53:22;2.47;;;1.70;;
49514;SDS011;35415;47.870;16.058;2022-09-27T07:55:50;5.20;;;2.40;;
49514;SDS011;35415;47.870;16.058;2022-09-27T07:58:19;2.45;;;2.08;;
49514;SDS011;35415;47.870;16.058;2022-09-27T08:00:46;3.92;;;2.65;;
49514;SDS011;35415;47.870;16.058;2022-09-27T08:03:14;4.82;;;2.95;;
49514;SDS011;35415;47.870;16.058;2022-09-27T08:05:44;4.20;;;3.63;;
49514;SDS011;35415;47.870;16.058;2022-09-27T08:08:16;4.47;;;3.50;;
49514;SDS011;35415;47.870;16.058;2022-09-27T08:10:43;4.50;;;3.55;;
49514;SDS011;35415;47.870;16.058;2022-09-27T08:13:11;4.65;;;2.92;;
49514;SDS011;35415;47.870;16.058;2022-09-27T08:15:39;4.72;;;2.88;;
49514;SDS011;35415;47.870;16.058;2022-09-27T08:18:06;3.67;;;2.40;;
49514;SDS011;35415;47.870;16.058;2022-09-27T08:20:34;3.35;;;2.33;;
49514;SDS011;35415;47.870;16.058;2022-09-27T08:23:05;2.55;;;1.70;;
49514;SDS011;35415;47.870;16.058;2022-09-27T08:25:33;6.57;;;1.75;;
49514;SDS011;35415;47.870;16.058;2022-09-27T08:28:01;3.10;;;1.92;;
49514;SDS011;35415;47.870;16.058;2022-09-27T08:30:35;2.63;;;1.70;;
49514;SDS011;35415;47.870;16.058;2022-09-27T08:33:02;4.47;;;1.13;;
49514;SDS011;35415;47.870;16.058;2022-09-27T08:35:30;2.85;;;1.42;;
49514;SDS011;35415;47.870;16.058;2022-09-27T08:37:58;1.17;;;0.95;;
49514;SDS011;35415;47.870;16.058;2022-09-27T08:40:30;3.80;;;0.95;;
49514;SDS011;35415;47.870;16.058;2022-09-27T08:43:09;5.57;;;2.28;;
49514;SDS011;35415;47.870;16.058;2022-09-27T08:45:47;1.40;;;0.80;;
49514;SDS011;35415;47.870;16.058;2022-09-27T08:48:26;0.82;;;0.57;;
49514;SDS011;35415;47.870;16.058;2022-09-27T08:50:55;0.73;;;0.73;;
49514;SDS011;35415;47.870;16.058;2022-09-27T08:53:24;3.67;;;1.40;;
49514;SDS011;35415;47.870;16.058;2022-09-27T08:55:55;0.88;;;0.80;;
49514;SDS011;35415;47.870;16.058;2022-09-27T08:58:25;2.65;;;1.02;;
49514;SDS011;35415;47.870;16.058;2022-09-27T09:00:54;3.65;;;1.38;;
49514;SDS011;35415;47.870;16.058;2022-09-27T09:03:26;0.70;;;0.70;;
49514;SDS011;35415;47.870;16.058;2022-09-27T09:06:00;0.45;;;0.45;;
49514;SDS011;35415;47.870;16.058;2022-09-27T09:08:42;2.40;;;0.70;;
49514;SDS011;35415;47.870;16.058;2022-09-27T09:11:24;1.15;;;0.55;;
49514;SDS011;35415;47.870;16.058;2022-09-27T09:14:23;1.10;;;0.70;;
49514;SDS011;35415;47.870;16.058;2022-09-27T09:17:07;1.98;;;0.80;;
49514;SDS011;35415;47.870;16.058;2022-09-27T09:19:48;0.85;;;0.70;;
49514;SDS011;35415;47.870;16.058;2022-09-27T09:22:33;7.72;;;0.80;;
49514;SDS011;35415;47.870;16.058;2022-09-27T09:25:14;1.45;;;0.60;;
49514;SDS011;35415;47.870;16.058;2022-09-27T09:27:52;0.93;;;0.60;;
49514;SDS011;35415;47.870;16.058;2022-09-27T09:30:29;1.10;;;0.60;;
49514;SDS011;35415;47.870;16.058;2022-09-27T09:33:10;2.00;;;0.80;;
49514;SDS011;35415;47.870;16.058;2022-09-27T09:35:48;0.73;;;0.55;;
49514;SDS011;35415;47.870;16.058;2022-09-27T09:38:24;0.82;;;0.60;;
49514;SDS011;35415;47.870;16.058;2022-09-27T09:40:59;0.50;;;0.50;;
49514;SDS011;35415;47.870;16.058;2022-09-27T09:43:34;1.17;;;0.70;;
49514;SDS011;35415;47.870;16.058;2022-09-27T09:46:07;0.93;;;0.60;;
49514;SDS011;35415;47.870;16.058;2022-09-27T09:48:41;1.42;;;0.50;;
49514;SDS011;35415;47.870;16.058;2022-09-27T09:51:12;26.42;;;4.32;;
49514;SDS011;35415;47.870;16.058;2022-09-27T09:53:47;0.77;;;0.63;;
49514;SDS011;35415;47.870;16.058;2022-09-27T09:56:20;1.77;;;0.55;;
49514;SDS011;35415;47.870;16.058;2022-09-27T09:58:54;0.70;;;0.60;;
49514;SDS011;35415;47.870;16.058;2022-09-27T10:03:52;2.50;;;0.80;;
49514;SDS011;35415;47.870;16.058;2022-09-27T10:06:20;0.63;;;0.50;;
49514;SDS011;35415;47.870;16.058;2022-09-27T10:08:50;8.70;;;0.90;;
49514;SDS011;35415;47.870;16.058;2022-09-27T10:11:21;8.52;;;1.00;;
49514;SDS011;35415;47.870;16.058;2022-09-27T10:13:52;0.85;;;0.77;;
49514;SDS011;35415;47.870;16.058;2022-09-27T10:16:22;0.85;;;0.60;;
49514;SDS011;35415;47.870;16.058;2022-09-27T10:18:54;2.05;;;0.80;;
49514;SDS011;35415;47.870;16.058;2022-09-27T10:21:26;4.60;;;1.00;;
49514;SDS011;35415;47.870;16.058;2022-09-27T10:26:42;0.75;;;0.73;;
49514;SDS011;35415;47.870;16.058;2022-09-27T10:29:16;1.40;;;0.90;;
49514;SDS011;35415;47.870;16.058;2022-09-27T10:31:49;1.20;;;0.93;;
49514;SDS011;35415;47.870;16.058;2022-09-27T10:34:20;5.15;;;1.00;;
49514;SDS011;35415;47.870;16.058;2022-09-27T10:37:06;2.10;;;1.00;;
49514;SDS011;35415;47.870;16.058;2022-09-27T10:39:42;1.38;;;0.90;;
49514;SDS011;35415;47.870;16.058;2022-09-27T10:42:30;1.67;;;1.13;;
49514;SDS011;35415;47.870;16.058;2022-09-27T10:45:19;0.70;;;0.60;;
49514;SDS011;35415;47.870;16.058;2022-09-27T10:47:54;0.68;;;0.60;;
49514;SDS011;35415;47.870;16.058;2022-09-27T10:50:24;0.57;;;0.57;;
49514;SDS011;35415;47.870;16.058;2022-09-27T10:52:59;0.80;;;0.70;;
49514;SDS011;35415;47.870;16.058;2022-09-27T10:55:30;2.63;;;0.60;;
49514;SDS011;35415;47.870;16.058;2022-09-27T10:58:00;0.57;;;0.50;;
49514;SDS011;35415;47.870;16.058;2022-09-27T11:00:31;1.02;;;0.40;;
49514;SDS011;35415;47.870;16.058;2022-09-27T11:03:00;0.32;;;0.30;;
49514;SDS011;35415;47.870;16.058;2022-09-27T11:05:31;0.47;;;0.45;;
49514;SDS011;35415;47.870;16.058;2022-09-27T11:08:01;0.93;;;0.55;;
49514;SDS011;35415;47.870;16.058;2022-09-27T11:10:59;1.33;;;0.70;;
49514;SDS011;35415;47.870;16.058;2022-09-27T11:13:28;1.17;;;0.77;;
49514;SDS011;35415;47.870;16.058;2022-09-27T11:16:20;1.33;;;0.80;;
49514;SDS011;35415;47.870;16.058;2022-09-27T11:19:01;0.50;;;0.50;;
49514;SDS011;35415;47.870;16.058;2022-09-27T11:21:41;5.07;;;1.92;;
49514;SDS011;35415;47.870;16.058;2022-09-27T11:24:17;0.40;;;0.32;;
49514;SDS011;35415;47.870;16.058;2022-09-27T11:26:59;4.55;;;1.00;;
49514;SDS011;35415;47.870;16.058;2022-09-27T11:29:38;1.75;;;0.90;;
49514;SDS011;35415;47.870;16.058;2022-09-27T11:32:21;10.13;;;2.40;;
49514;SDS011;35415;47.870;16.058;2022-09-27T11:35:01;2.55;;;0.63;;
49514;SDS011;35415;47.870;16.058;2022-09-27T11:37:44;14.70;;;2.15;;
49514;SDS011;35415;47.870;16.058;2022-09-27T11:40:19;7.70;;;1.48;;
49514;SDS011;35415;47.870;16.058;2022-09-27T11:43:06;1.95;;;0.65;;
49514;SDS011;35415;47.870;16.058;2022-09-27T11:45:53;5.15;;;1.85;;
49514;SDS011;35415;47.870;16.058;2022-09-27T11:48:37;14.13;;;2.95;;
49514;SDS011;35415;47.870;16.058;2022-09-27T11:51:27;7.10;;;1.65;;
49514;SDS011;35415;47.870;16.058;2022-09-27T11:54:05;1.85;;;0.68;;
49514;SDS011;35415;47.870;16.058;2022-09-27T11:56:50;1.35;;;0.40;;
49514;SDS011;35415;47.870;16.058;2022-09-27T11:59:36;4.70;;;0.65;;
49514;SDS011;35415;47.870;16.058;2022-09-27T12:02:33;19.38;;;2.33;;
49514;SDS011;35415;47.870;16.058;2022-09-27T12:05:18;1.75;;;0.70;;
49514;SDS011;35415;47.870;16.058;2022-09-27T12:07:52;9.50;;;1.77;;
49514;SDS011;35415;47.870;16.058;2022-09-27T12:10:33;4.13;;;1.20;;
49514;SDS011;35415;47.870;16.058;2022-09-27T12:13:03;34.72;;;2.45;;
49514;SDS011;35415;47.870;16.058;2022-09-27T12:15:33;6.00;;;1.17;;
49514;SDS011;35415;47.870;16.058;2022-09-27T12:18:08;8.25;;;0.90;;
49514;SDS011;35415;47.870;16.058;2022-09-27T12:20:41;8.45;;;1.23;;
49514;SDS011;35415;47.870;16.058;2022-09-27T12:23:13;4.50;;;1.13;;
49514;SDS011;35415;47.870;16.058;2022-09-27T12:25:46;5.50;;;0.50;;
49514;SDS011;35415;47.870;16.058;2022-09-27T12:28:18;6.07;;;0.60;;
49514;SDS011;35415;47.870;16.058;2022-09-27T12:30:53;5.15;;;0.60;;
49514;SDS011;35415;47.870;16.058;2022-09-27T12:33:25;0.50;;;0.35;;
49514;SDS011;35415;47.870;16.058;2022-09-27T12:36:03;2.03;;;0.70;;
49514;SDS011;35415;47.870;16.058;2022-09-27T12:38:36;2.40;;;0.50;;
49514;SDS011;35415;47.870;16.058;2022-09-27T12:41:06;0.82;;;0.80;;
49514;SDS011;35415;47.870;16.058;2022-09-27T12:43:38;1.15;;;0.73;;
49514;SDS011;35415;47.870;16.058;2022-09-27T12:46:10;0.93;;;0.50;;
49514;SDS011;35415;47.870;16.058;2022-09-27T12:48:50;0.30;;;0.30;;
49514;SDS011;35415;47.870;16.058;2022-09-27T12:51:32;0.57;;;0.50;;
49514;SDS011;35415;47.870;16.058;2022-09-27T12:54:08;20.55;;;1.08;;
49514;SDS011;35415;47.870;16.058;2022-09-27T12:57:09;3.83;;;0.45;;
49514;SDS011;35415;47.870;16.058;2022-09-27T12:59:50;4.65;;;0.90;;
49514;SDS011;35415;47.870;16.058;2022-09-27T13:02:35;1.05;;;0.65;;
49514;SDS011;35415;47.870;16.058;2022-09-27T13:05:24;2.30;;;0.68;;
49514;SDS011;35415;47.870;16.058;2022-09-27T13:08:17;29.33;;;2.17;;
49514;SDS011;35415;47.870;16.058;2022-09-27T13:10:59;2.55;;;0.65;;
49514;SDS011;35415;47.870;16.058;2022-09-27T13:13:38;35.65;;;3.38;;
49514;SDS011;35415;47.870;16.058;2022-09-27T13:16:06;76.25;;;5.70;;
49514;SDS011;35415;47.870;16.058;2022-09-27T13:18:50;20.05;;;1.40;;
49514;SDS011;35415;47.870;16.058;2022-09-27T13:24:30;1.80;;;0.50;;
49514;SDS011;35415;47.870;16.058;2022-09-27T13:42:01;5.05;;;0.60;;
49514;SDS011;35415;47.870;16.058;2022-09-27T13:47:33;18.00;;;0.90;;
49514;SDS011;35415;47.870;16.058;2022-09-27T13:50:12;3.15;;;0.40;;
49514;SDS011;35415;47.870;16.058;2022-09-27T13:52:53;1.48;;;0.40;;
49514;SDS011;35415;47.870;16.058;2022-09-27T13:55:42;3.13;;;1.00;;
49514;SDS011;35415;47.870;16.058;2022-09-27T14:01:22;0.65;;;0.52;;
49514;SDS011;35415;47.870;16.058;2022-09-27T14:03:55;7.95;;;1.55;;
49514;SDS011;35415;47.870;16.058;2022-09-27T14:06:28;2.60;;;0.43;;
49514;SDS011;35415;47.870;16.058;2022-09-27T14:09:02;0.57;;;0.50;;
49514;SDS011;35415;47.870;16.058;2022-09-27T14:11:32;6.55;;;0.73;;
49514;SDS011;35415;47.870;16.058;2022-09-27T14:14:03;3.35;;;0.60;;
49514;SDS011;35415;47.870;16.058;2022-09-27T14:16:33;0.82;;;0.45;;
49514;SDS011;35415;47.870;16.058;2022-09-27T14:19:08;2.53;;;0.82;;
49514;SDS011;35415;47.870;16.058;2022-09-27T14:21:45;0.40;;;0.40;;
49514;SDS011;35415;47.870;16.058;2022-09-27T14:24:22;0.82;;;0.50;;
49514;SDS011;35415;47.870;16.058;2022-09-27T14:27:02;0.65;;;0.60;;
49514;SDS011;35415;47.870;16.058;2022-09-27T14:29:40;14.23;;;1.65;;
49514;SDS011;35415;47.870;16.058;2022-09-27T14:32:11;1.33;;;0.60;;
49514;SDS011;35415;47.870;16.058;2022-09-27T14:34:40;10.57;;;1.73;;
49514;SDS011;35415;47.870;16.058;2022-09-27T14:37:17;8.18;;;1.30;;
49514;SDS011;35415;47.870;16.058;2022-09-27T14:39:53;1.42;;;0.40;;
49514;SDS011;35415;47.870;16.058;2022-09-27T14:42:27;1.20;;;0.73;;
49514;SDS011;35415;47.870;16.058;2022-09-27T14:45:02;0.63;;;0.60;;
49514;SDS011;35415;47.870;16.058;2022-09-27T14:47:43;3.92;;;1.00;;
49514;SDS011;35415;47.870;16.058;2022-09-27T14:52:43;1.35;;;0.98;;
49514;SDS011;35415;47.870;16.058;2022-09-27T14:55:13;0.40;;;0.40;;
49514;SDS011;35415;47.870;16.058;2022-09-27T14:57:44;1.00;;;0.70;;
49514;SDS011;35415;47.870;16.058;2022-09-27T15:00:19;0.77;;;0.50;;
49514;SDS011;35415;47.870;16.058;2022-09-27T15:02:49;1.00;;;0.50;;
49514;SDS011;35415;47.870;16.058;2022-09-27T15:05:21;2.20;;;0.70;;
49514;SDS011;35415;47.870;16.058;2022-09-27T15:07:49;4.75;;;0.77;;
49514;SDS011;35415;47.870;16.058;2022-09-27T15:10:20;6.68;;;1.42;;
49514;SDS011;35415;47.870;16.058;2022-09-27T15:12:52;1.10;;;1.00;;
49514;SDS011;35415;47.870;16.058;2022-09-27T15:15:27;2.10;;;1.00;;
49514;SDS011;35415;47.870;16.058;2022-09-27T15:20:25;1.20;;;0.73;;
49514;SDS011;35415;47.870;16.058;2022-09-27T15:22:56;0.60;;;0.50;;
49514;SDS011;35415;47.870;16.058;2022-09-27T15:25:25;3.05;;;0.60;;
49514;SDS011;35415;47.870;16.058;2022-09-27T15:27:59;1.17;;;0.60;;
49514;SDS011;35415;47.870;16.058;2022-09-27T15:30:34;0.85;;;0.43;;
49514;SDS011;35415;47.870;16.058;2022-09-27T15:33:03;1.05;;;0.73;;
49514;SDS011;35415;47.870;16.058;2022-09-27T15:35:32;1.90;;;0.95;;
49514;SDS011;35415;47.870;16.058;2022-09-27T15:40:57;0.93;;;0.70;;
49514;SDS011;35415;47.870;16.058;2022-09-27T15:43:27;2.97;;;1.15;;
49514;SDS011;35415;47.870;16.058;2022-09-27T15:45:59;3.13;;;0.90;;
49514;SDS011;35415;47.870;16.058;2022-09-27T15:48:29;1.90;;;1.00;;
49514;SDS011;35415;47.870;16.058;2022-09-27T15:50:57;3.00;;;1.63;;
49514;SDS011;35415;47.870;16.058;2022-09-27T15:53:43;0.65;;;0.50;;
49514;SDS011;35415;47.870;16.058;2022-09-27T15:56:14;1.95;;;1.15;;
49514;SDS011;35415;47.870;16.058;2022-09-27T15:58:41;0.90;;;0.68;;
49514;SDS011;35415;47.870;16.058;2022-09-27T16:01:17;2.38;;;1.38;;
49514;SDS011;35415;47.870;16.058;2022-09-27T16:03:47;3.75;;;1.42;;